createdAt,value
2023-04-12T00:00:36.558Z,1.57
2023-04-12T00:03:07.771Z,1.60
2023-04-12T00:05:37.789Z,1.50
2023-04-12T00:08:06.188Z,1.60
2023-04-12T00:10:33.548Z,1.70
2023-04-12T00:13:00.953Z,1.70
2023-04-12T00:15:28.588Z,1.33
2023-04-12T00:17:56.034Z,1.80
2023-04-12T00:20:24.441Z,1.80
2023-04-12T00:22:53.773Z,1.97
2023-04-12T00:25:21.276Z,1.60
2023-04-12T00:27:48.648Z,1.57
2023-04-12T00:30:17.465Z,1.50
2023-04-12T00:32:46.075Z,1.53
2023-04-12T00:35:13.497Z,1.47
2023-04-12T00:37:40.894Z,1.90
2023-04-12T00:40:11.740Z,1.70
2023-04-12T00:42:39.173Z,1.70
2023-04-12T00:45:08.146Z,1.50
2023-04-12T00:47:37.598Z,1.40
2023-04-12T00:50:05.842Z,2.13
2023-04-12T00:52:34.165Z,1.50
2023-04-12T00:55:02.058Z,1.50
2023-04-12T00:57:31.569Z,1.70
2023-04-12T00:59:59.040Z,1.70
2023-04-12T01:02:26.655Z,1.73
2023-04-12T01:04:54.385Z,1.50
2023-04-12T01:07:26.224Z,1.40
2023-04-12T01:09:58.013Z,1.47
2023-04-12T01:12:33.213Z,2.43
2023-04-12T01:15:05.902Z,1.73
2023-04-12T01:17:37.900Z,2.07
2023-04-12T01:20:13.261Z,3.33
2023-04-12T01:22:56.969Z,1.80
2023-04-12T01:25:39.037Z,1.70
2023-04-12T01:28:09.104Z,1.70
2023-04-12T01:30:37.431Z,1.73
2023-04-12T01:33:06.494Z,1.70
2023-04-12T01:35:35.365Z,1.87
2023-04-12T01:38:04.111Z,1.70
2023-04-12T01:40:33.185Z,1.70
2023-04-12T01:43:08.632Z,1.50
2023-04-12T01:45:36.145Z,1.40
2023-04-12T01:48:05.967Z,2.43
2023-04-12T01:50:36.888Z,2.30
2023-04-12T01:53:09.673Z,1.60
2023-04-12T01:55:38.536Z,1.40
2023-04-12T01:58:06.382Z,1.60
2023-04-12T02:00:36.602Z,1.50
2023-04-12T02:03:04.722Z,1.70
2023-04-12T02:05:32.505Z,1.57
2023-04-12T02:08:00.353Z,1.47
2023-04-12T02:10:31.466Z,1.33
2023-04-12T02:13:01.876Z,1.40
2023-04-12T02:15:31.465Z,1.40
2023-04-12T02:18:03.189Z,1.30
2023-04-12T02:20:30.647Z,1.40
2023-04-12T02:22:58.084Z,1.40
2023-04-12T02:25:27.138Z,1.37
2023-04-12T02:27:54.650Z,1.47
2023-04-12T02:30:22.914Z,1.20
2023-04-12T02:32:53.567Z,1.67
2023-04-12T02:35:27.776Z,1.67
2023-04-12T02:38:01.603Z,1.50
2023-04-12T02:40:30.336Z,1.50
2023-04-12T02:42:58.365Z,1.70
2023-04-12T02:45:27.145Z,1.47
2023-04-12T02:47:55.643Z,1.90
2023-04-12T02:50:28.261Z,1.57
2023-04-12T02:53:03.028Z,2.13
2023-04-12T02:55:31.445Z,1.40
2023-04-12T02:58:01.547Z,1.50
2023-04-12T03:00:29.092Z,1.50
2023-04-12T03:03:01.730Z,1.30
2023-04-12T03:05:32.603Z,1.50
2023-04-12T03:08:01.032Z,1.30
2023-04-12T03:10:37.734Z,1.50
2023-04-12T03:13:05.620Z,1.40
2023-04-12T03:15:36.665Z,1.40
2023-04-12T03:18:04.765Z,1.47
2023-04-12T03:20:41.592Z,1.53
2023-04-12T03:23:10.001Z,2.10
2023-04-12T03:25:42.856Z,1.67
2023-04-12T03:28:30.525Z,2.10
2023-04-12T03:30:59.289Z,2.00
2023-04-12T03:33:35.632Z,2.93
2023-04-12T03:36:08.244Z,2.13
2023-04-12T03:38:36.282Z,1.80
2023-04-12T03:41:04.077Z,1.73
2023-04-12T03:43:37.699Z,1.60
2023-04-12T03:46:15.372Z,1.77
2023-04-12T03:48:43.175Z,1.90
2023-04-12T03:51:12.758Z,1.43
2023-04-12T03:53:44.632Z,1.67
2023-04-12T03:56:15.781Z,1.73
2023-04-12T03:58:46.412Z,1.70
2023-04-12T04:01:14.855Z,1.80
2023-04-12T04:03:44.956Z,2.03
2023-04-12T04:06:21.529Z,2.00
2023-04-12T04:08:49.350Z,2.30
2023-04-12T04:11:16.851Z,1.80
2023-04-12T04:13:49.536Z,2.40
2023-04-12T04:16:20.368Z,2.80
2023-04-12T04:18:48.874Z,4.03
2023-04-12T04:21:22.269Z,4.70
2023-04-12T04:23:54.328Z,4.50
2023-04-12T04:26:33.097Z,4.23
2023-04-12T04:29:08.391Z,4.70
2023-04-12T04:31:40.055Z,4.00
2023-04-12T04:34:09.464Z,3.17
2023-04-12T04:36:43.906Z,3.93
2023-04-12T04:39:12.718Z,3.67
2023-04-12T04:41:42.089Z,3.33
2023-04-12T04:44:15.159Z,3.80
2023-04-12T04:46:51.576Z,2.93
2023-04-12T04:49:19.109Z,2.23
2023-04-12T04:51:48.453Z,1.70
2023-04-12T04:54:16.726Z,2.17
2023-04-12T04:56:44.733Z,1.80
2023-04-12T04:59:15.021Z,1.80
2023-04-12T05:01:43.098Z,1.70
2023-04-12T05:04:10.865Z,1.83
2023-04-12T05:06:38.256Z,3.43
2023-04-12T05:09:10.010Z,2.17
2023-04-12T05:11:43.450Z,2.70
2023-04-12T05:14:12.804Z,1.80
2023-04-12T05:16:41.094Z,1.77
2023-04-12T05:19:08.554Z,1.97
2023-04-12T05:21:36.039Z,1.83
2023-04-12T05:24:03.443Z,1.93
2023-04-12T05:26:35.025Z,1.90
2023-04-12T05:29:06.139Z,2.10
2023-04-12T05:31:34.150Z,2.00
2023-04-12T05:34:05.693Z,2.23
2023-04-12T05:36:36.129Z,1.83
2023-04-12T05:39:04.905Z,2.03
2023-04-12T05:41:36.917Z,2.20
2023-04-12T05:44:04.440Z,2.43
2023-04-12T05:46:32.685Z,2.97
2023-04-12T05:49:01.772Z,2.30
2023-04-12T05:51:40.548Z,3.20
2023-04-12T05:54:12.711Z,3.70
2023-04-12T05:56:41.918Z,3.57
2023-04-12T05:59:10.868Z,4.40
2023-04-12T06:01:42.555Z,4.10
2023-04-12T06:04:10.139Z,4.40
2023-04-12T06:06:38.838Z,5.03
2023-04-12T06:09:06.295Z,4.70
2023-04-12T06:11:34.138Z,5.87
2023-04-12T06:14:04.876Z,5.97
2023-04-12T06:16:32.411Z,6.03
2023-04-12T06:19:00.078Z,5.67
2023-04-12T06:21:29.226Z,5.03
2023-04-12T06:23:56.662Z,5.57
2023-04-12T06:26:24.456Z,5.83
2023-04-12T06:28:51.958Z,6.00
2023-04-12T06:31:21.598Z,7.23
2023-04-12T06:33:50.277Z,5.77
2023-04-12T06:36:17.719Z,7.10
2023-04-12T06:38:45.376Z,6.50
2023-04-12T06:41:12.800Z,6.57
2023-04-12T06:43:40.226Z,6.23
2023-04-12T06:46:08.963Z,8.20
2023-04-12T06:48:37.752Z,8.67
2023-04-12T06:51:05.380Z,9.07
2023-04-12T06:53:34.914Z,12.33
2023-04-12T06:56:04.376Z,13.27
2023-04-12T06:58:32.033Z,12.57
2023-04-12T07:01:05.319Z,11.70
2023-04-12T07:03:33.255Z,10.77
2023-04-12T07:06:07.768Z,13.87
2023-04-12T07:08:44.923Z,11.03
2023-04-12T07:11:21.028Z,10.87
2023-04-12T07:13:49.408Z,10.30
2023-04-12T07:16:16.897Z,9.47
2023-04-12T07:18:44.317Z,7.97
2023-04-12T07:21:14.359Z,5.93
2023-04-12T07:23:41.883Z,6.50
2023-04-12T07:26:09.275Z,7.80
2023-04-12T07:28:38.009Z,7.33
2023-04-12T07:31:06.167Z,6.63
2023-04-12T07:33:35.729Z,6.83
2023-04-12T07:36:03.448Z,6.80
2023-04-12T07:38:32.203Z,5.80
2023-04-12T07:40:59.640Z,6.03
2023-04-12T07:43:27.265Z,6.77
2023-04-12T07:45:55.511Z,7.27
2023-04-12T07:48:22.929Z,5.70
2023-04-12T07:50:50.500Z,5.37
2023-04-12T07:53:22.150Z,5.73
2023-04-12T07:55:51.334Z,6.23
2023-04-12T07:58:19.260Z,6.10
2023-04-12T08:00:47.113Z,5.57
2023-04-12T08:03:15.423Z,6.33
2023-04-12T08:05:42.996Z,6.00
2023-04-12T08:08:10.864Z,6.87
2023-04-12T08:10:38.779Z,6.13
2023-04-12T08:13:07.876Z,5.93
2023-04-12T08:15:35.379Z,5.87
2023-04-12T08:18:03.256Z,5.20
2023-04-12T08:20:31.561Z,4.77
2023-04-12T08:22:59.063Z,5.00
2023-04-12T08:25:26.974Z,5.20
2023-04-12T08:27:54.398Z,4.67
2023-04-12T08:30:26.590Z,4.30
2023-04-12T08:32:54.118Z,3.83
2023-04-12T08:35:22.281Z,4.40
2023-04-12T08:37:49.794Z,5.23
2023-04-12T08:40:17.498Z,3.87
2023-04-12T08:42:44.905Z,3.87
2023-04-12T08:45:13.043Z,4.20
2023-04-12T08:47:42.889Z,4.93
2023-04-12T08:50:13.591Z,4.63
2023-04-12T08:52:41.513Z,4.10
2023-04-12T08:55:10.098Z,3.67
2023-04-12T08:57:37.746Z,2.57
2023-04-12T09:00:05.499Z,3.00
2023-04-12T09:02:33.112Z,2.40
2023-04-12T09:05:03.049Z,2.70
2023-04-12T09:07:31.166Z,2.20
2023-04-12T09:09:59.664Z,1.57
2023-04-12T09:12:27.192Z,2.70
2023-04-12T09:15:08.881Z,2.03
2023-04-12T09:17:38.653Z,1.90
2023-04-12T09:20:23.594Z,1.80
2023-04-12T09:22:52.645Z,1.67
2023-04-12T09:25:20.030Z,1.53
2023-04-12T09:27:48.090Z,1.80
2023-04-12T09:30:16.604Z,2.30
2023-04-12T09:32:44.178Z,2.07
2023-04-12T09:35:11.835Z,2.10
2023-04-12T09:37:40.698Z,2.10
2023-04-12T09:40:09.146Z,2.10
2023-04-12T09:42:37.654Z,1.67
2023-04-12T09:45:19.905Z,1.80
2023-04-12T09:47:47.670Z,1.83
2023-04-12T09:50:20.991Z,1.70
2023-04-12T09:52:49.962Z,2.83
2023-04-12T09:55:18.310Z,2.40
2023-04-12T09:57:46.182Z,2.43
2023-04-12T10:00:17.553Z,2.70
2023-04-12T10:02:46.919Z,3.67
2023-04-12T10:05:17.185Z,2.07
2023-04-12T10:07:45.483Z,2.30
2023-04-12T10:10:15.947Z,1.87
2023-04-12T10:12:45.461Z,1.97
2023-04-12T10:15:15.067Z,2.70
2023-04-12T10:17:42.852Z,3.03
2023-04-12T10:20:11.067Z,2.47
2023-04-12T10:22:39.890Z,1.90
2023-04-12T10:25:10.619Z,1.80
2023-04-12T10:27:41.077Z,1.73
2023-04-12T10:30:25.335Z,4.63
2023-04-12T10:33:11.345Z,2.67
2023-04-12T10:35:54.253Z,1.73
2023-04-12T10:38:23.130Z,1.83
2023-04-12T10:41:05.490Z,2.00
2023-04-12T10:43:34.301Z,2.40
2023-04-12T10:46:04.959Z,2.30
2023-04-12T10:48:32.889Z,1.97
2023-04-12T10:51:22.946Z,2.53
2023-04-12T10:53:51.704Z,4.60
2023-04-12T10:56:41.340Z,3.67
2023-04-12T10:59:14.248Z,3.03
2023-04-12T11:02:04.861Z,3.00
2023-04-12T11:04:32.579Z,2.87
2023-04-12T11:07:12.385Z,3.47
2023-04-12T11:09:43.273Z,2.50
2023-04-12T11:12:16.106Z,2.50
2023-04-12T11:14:49.129Z,1.80
2023-04-12T11:17:24.562Z,1.70
2023-04-12T11:19:53.547Z,2.50
2023-04-12T11:22:22.222Z,2.10
2023-04-12T11:24:50.403Z,2.03
2023-04-12T11:27:18.056Z,2.10
2023-04-12T11:29:46.208Z,1.90
2023-04-12T11:32:15.268Z,2.57
2023-04-12T11:34:43.409Z,2.50
2023-04-12T11:37:11.136Z,2.33
2023-04-12T11:39:40.064Z,2.17
2023-04-12T11:42:08.670Z,2.40
2023-04-12T11:44:54.531Z,2.27
2023-04-12T11:47:25.677Z,2.30
2023-04-12T11:49:53.924Z,2.23
2023-04-12T11:52:22.463Z,2.23
2023-04-12T11:54:50.818Z,2.17
2023-04-12T11:57:18.899Z,3.77
2023-04-12T11:59:47.180Z,2.07
2023-04-12T12:02:22.924Z,2.20
2023-04-12T12:04:53.387Z,2.23
2023-04-12T12:07:22.143Z,2.43
2023-04-12T12:09:49.945Z,2.10
2023-04-12T12:12:17.332Z,2.13
2023-04-12T12:14:45.422Z,2.00
2023-04-12T12:17:14.013Z,2.27
2023-04-12T12:19:42.513Z,2.23
2023-04-12T12:22:15.724Z,2.10
2023-04-12T12:24:46.563Z,2.37
2023-04-12T12:27:14.085Z,3.70
2023-04-12T12:29:41.470Z,2.73
2023-04-12T12:32:13.508Z,2.87
2023-04-12T12:34:41.440Z,2.40
2023-04-12T12:37:10.303Z,2.37
2023-04-12T12:39:39.240Z,3.43
2023-04-12T12:42:06.819Z,2.40
2023-04-12T12:44:37.503Z,2.30
2023-04-12T12:47:14.049Z,2.20
2023-04-12T12:49:42.256Z,2.40
2023-04-12T12:52:09.736Z,2.70
2023-04-12T12:54:41.521Z,3.23
2023-04-12T12:57:10.666Z,1.90
2023-04-12T12:59:38.130Z,2.53
2023-04-12T13:02:07.179Z,2.63
2023-04-12T13:04:34.873Z,3.93
2023-04-12T13:07:02.839Z,2.90
2023-04-12T13:09:32.114Z,4.10
2023-04-12T13:11:59.514Z,4.43
2023-04-12T13:14:28.335Z,2.83
2023-04-12T13:16:56.178Z,2.23
2023-04-12T13:19:23.651Z,2.10
2023-04-12T13:21:53.101Z,1.80
2023-04-12T13:24:20.796Z,1.97
2023-04-12T13:26:48.328Z,2.10
2023-04-12T13:29:15.695Z,2.07
2023-04-12T13:31:44.434Z,1.97
2023-04-12T13:34:11.882Z,1.63
2023-04-12T13:36:39.274Z,2.63
2023-04-12T13:39:06.996Z,2.50
2023-04-12T13:41:34.398Z,1.70
2023-04-12T13:44:02.037Z,1.13
2023-04-12T13:46:29.441Z,1.20
2023-04-12T13:48:58.430Z,1.23
2023-04-12T13:51:28.238Z,1.23
2023-04-12T13:53:55.618Z,1.23
2023-04-12T13:56:22.998Z,1.10
2023-04-12T13:58:50.344Z,1.07
2023-04-12T14:01:18.180Z,1.50
2023-04-12T14:03:45.859Z,1.30
2023-04-12T14:06:14.819Z,1.10
2023-04-12T14:08:42.176Z,1.00
2023-04-12T14:11:09.591Z,1.17
2023-04-12T14:13:37.463Z,1.20
2023-04-12T14:16:07.030Z,1.17
2023-04-12T14:18:34.497Z,0.90
2023-04-12T14:21:03.334Z,1.10
2023-04-12T14:23:32.075Z,0.90
2023-04-12T14:25:59.688Z,1.10
2023-04-12T14:28:30.717Z,1.00
2023-04-12T14:30:58.277Z,1.80
2023-04-12T14:33:26.019Z,1.20
2023-04-12T14:35:54.374Z,1.10
2023-04-12T14:38:22.689Z,0.93
2023-04-12T14:40:51.609Z,1.23
2023-04-12T14:43:19.045Z,1.57
2023-04-12T14:45:46.482Z,1.10
2023-04-12T14:48:13.874Z,1.10
2023-04-12T14:50:41.240Z,1.07
2023-04-12T14:53:09.633Z,1.20
2023-04-12T14:55:36.993Z,1.10
2023-04-12T14:58:06.344Z,2.60
2023-04-12T15:00:34.288Z,1.60
2023-04-12T15:03:02.267Z,1.30
2023-04-12T15:05:30.530Z,1.53
2023-04-12T15:07:58.269Z,1.27
2023-04-12T15:10:26.132Z,1.30
2023-04-12T15:12:53.563Z,1.20
2023-04-12T15:15:22.544Z,1.47
2023-04-12T15:17:50.068Z,2.13
2023-04-12T15:20:17.591Z,1.20
2023-04-12T15:22:45.134Z,1.40
2023-04-12T15:25:12.565Z,1.30
2023-04-12T15:27:39.995Z,1.30
2023-04-12T15:30:10.659Z,1.20
2023-04-12T15:32:42.391Z,1.30
2023-04-12T15:35:25.354Z,1.30
2023-04-12T15:37:54.862Z,1.40
2023-04-12T15:40:22.724Z,1.63
2023-04-12T15:42:50.356Z,1.30
2023-04-12T15:45:18.082Z,1.77
2023-04-12T15:47:47.259Z,1.50
2023-04-12T15:50:14.747Z,1.47
2023-04-12T15:52:42.926Z,1.93
2023-04-12T15:55:11.599Z,3.63
2023-04-12T15:57:39.103Z,1.40
2023-04-12T16:00:20.517Z,1.63
2023-04-12T16:02:53.409Z,1.20
2023-04-12T16:05:21.195Z,1.70
2023-04-12T16:07:51.108Z,1.30
2023-04-12T16:10:20.857Z,1.40
2023-04-12T16:12:49.432Z,1.67
2023-04-12T16:15:18.054Z,1.40
2023-04-12T16:17:47.059Z,1.20
2023-04-12T16:20:18.462Z,1.30
2023-04-12T16:22:47.072Z,1.33
2023-04-12T16:25:14.779Z,1.40
2023-04-12T16:27:42.195Z,1.40
2023-04-12T16:30:10.475Z,1.40
2023-04-12T16:32:37.872Z,1.53
2023-04-12T16:35:05.688Z,1.40
2023-04-12T16:37:34.754Z,1.67
2023-04-12T16:40:02.177Z,2.07
2023-04-12T16:42:31.615Z,2.37
2023-04-12T16:44:59.172Z,1.43
2023-04-12T16:47:26.713Z,1.90
2023-04-12T16:49:54.133Z,1.80
2023-04-12T16:52:21.559Z,2.60
2023-04-12T16:54:50.300Z,1.87
2023-04-12T16:57:17.982Z,1.97
2023-04-12T16:59:45.424Z,1.83
2023-04-12T17:02:12.805Z,3.17
2023-04-12T17:04:40.377Z,2.07
2023-04-12T17:07:07.814Z,1.83
2023-04-12T17:09:35.374Z,2.27
2023-04-12T17:12:04.191Z,1.77
2023-04-12T17:14:32.098Z,2.00
2023-04-12T17:16:59.687Z,1.93
2023-04-12T17:19:27.124Z,1.87
2023-04-12T17:21:54.672Z,1.57
2023-04-12T17:24:22.073Z,1.73
2023-04-12T17:26:49.483Z,1.90
2023-04-12T17:29:19.155Z,2.33
2023-04-12T17:31:46.975Z,2.10
2023-04-12T17:34:14.439Z,2.03
2023-04-12T17:36:42.267Z,1.97
2023-04-12T17:39:10.083Z,1.80
2023-04-12T17:41:38.636Z,2.47
2023-04-12T17:44:06.581Z,2.03
2023-04-12T17:46:36.079Z,1.87
2023-04-12T17:49:05.372Z,1.90
2023-04-12T17:51:33.407Z,1.80
2023-04-12T17:54:03.470Z,3.20
2023-04-12T17:56:30.880Z,1.90
2023-04-12T17:58:58.496Z,2.03
2023-04-12T18:01:25.997Z,1.90
2023-04-12T18:03:54.835Z,2.53
2023-04-12T18:06:22.901Z,1.40
2023-04-12T18:08:50.734Z,1.70
2023-04-12T18:11:18.234Z,2.00
2023-04-12T18:13:45.771Z,2.10
2023-04-12T18:16:13.185Z,1.50
2023-04-12T18:18:40.657Z,1.40
2023-04-12T18:21:09.484Z,1.90
2023-04-12T18:23:36.869Z,1.70
2023-04-12T18:26:05.748Z,1.53
2023-04-12T18:28:33.120Z,2.00
2023-04-12T18:31:02.811Z,1.57
2023-04-12T18:33:31.172Z,1.07
2023-04-12T18:35:58.575Z,1.20
2023-04-12T18:38:32.330Z,1.17
2023-04-12T18:40:59.753Z,0.90
2023-04-12T18:43:27.137Z,0.80
2023-04-12T18:45:54.625Z,1.20
2023-04-12T18:48:22.604Z,1.07
2023-04-12T18:50:50.322Z,1.30
2023-04-12T18:53:17.762Z,1.00
2023-04-12T18:55:48.265Z,0.80
2023-04-12T18:58:15.968Z,1.20
2023-04-12T19:00:43.450Z,1.00
2023-04-12T19:03:11.053Z,1.90
2023-04-12T19:05:39.061Z,1.00
2023-04-12T19:08:06.768Z,0.90
2023-04-12T19:10:34.267Z,0.90
2023-04-12T19:13:03.090Z,1.30
2023-04-12T19:15:30.504Z,0.80
2023-04-12T19:17:59.930Z,1.00
2023-04-12T19:20:28.635Z,0.80
2023-04-12T19:22:56.011Z,1.10
2023-04-12T19:25:29.448Z,0.90
2023-04-12T19:27:57.116Z,1.30
2023-04-12T19:30:26.073Z,0.90
2023-04-12T19:32:53.509Z,0.90
2023-04-12T19:35:20.918Z,0.80
2023-04-12T19:37:50.015Z,0.70
2023-04-12T19:40:17.635Z,0.70
2023-04-12T19:42:45.152Z,0.70
2023-04-12T19:45:12.932Z,0.70
2023-04-12T19:47:44.857Z,0.70
2023-04-12T19:50:12.917Z,1.10
2023-04-12T19:52:41.629Z,0.77
2023-04-12T19:55:09.164Z,1.60
2023-04-12T19:57:37.910Z,0.97
2023-04-12T20:00:08.117Z,0.90
2023-04-12T20:02:35.602Z,0.90
2023-04-12T20:05:06.544Z,1.13
2023-04-12T20:07:34.091Z,0.80
2023-04-12T20:10:03.871Z,1.00
2023-04-12T20:12:33.151Z,0.90
2023-04-12T20:15:01.782Z,0.97
2023-04-12T20:17:29.210Z,1.00
2023-04-12T20:19:58.281Z,0.80
2023-04-12T20:22:27.497Z,0.80
2023-04-12T20:24:55.811Z,3.17
2023-04-12T20:27:23.231Z,0.90
2023-04-12T20:29:50.831Z,0.83
2023-04-12T20:32:18.223Z,0.80
2023-04-12T20:34:47.949Z,0.90
2023-04-12T20:37:15.574Z,0.80
2023-04-12T20:39:44.378Z,1.10
2023-04-12T20:42:12.253Z,0.97
2023-04-12T20:44:39.647Z,1.13
2023-04-12T20:47:07.329Z,1.00
2023-04-12T20:49:35.888Z,0.90
2023-04-12T20:52:04.183Z,1.13
2023-04-12T20:54:33.091Z,0.83
2023-04-12T20:57:04.080Z,0.90
2023-04-12T20:59:31.647Z,0.87
2023-04-12T21:01:59.601Z,0.90
2023-04-12T21:04:28.077Z,1.17
2023-04-12T21:06:57.291Z,0.90
2023-04-12T21:09:24.786Z,0.93
2023-04-12T21:11:53.009Z,0.90
2023-04-12T21:14:21.762Z,0.90
2023-04-12T21:16:49.524Z,1.00
2023-04-12T21:19:18.124Z,0.90
2023-04-12T21:21:45.956Z,1.00
2023-04-12T21:24:13.539Z,1.13
2023-04-12T21:26:41.116Z,0.90
2023-04-12T21:29:08.516Z,0.70
2023-04-12T21:31:39.024Z,0.60
2023-04-12T21:34:07.421Z,0.80
2023-04-12T21:36:34.881Z,0.80
2023-04-12T21:39:02.630Z,0.70
2023-04-12T21:41:30.315Z,0.53
2023-04-12T21:43:57.702Z,2.00
2023-04-12T21:46:27.189Z,0.80
2023-04-12T21:48:56.319Z,0.70
2023-04-12T21:51:24.652Z,0.67
2023-04-12T21:53:52.023Z,0.60
2023-04-12T21:56:19.458Z,0.57
2023-04-12T21:58:46.894Z,0.77
2023-04-12T22:01:15.485Z,0.80
2023-04-12T22:03:44.375Z,0.90
2023-04-12T22:06:13.249Z,0.60
2023-04-12T22:08:43.925Z,0.60
2023-04-12T22:11:18.634Z,0.60
2023-04-12T22:13:51.415Z,0.60
2023-04-12T22:16:18.894Z,0.70
2023-04-12T22:18:46.757Z,0.60
2023-04-12T22:21:15.474Z,0.50
2023-04-12T22:23:44.339Z,0.60
2023-04-12T22:26:12.495Z,1.07
2023-04-12T22:28:41.252Z,0.67
2023-04-12T22:31:10.030Z,0.60
2023-04-12T22:33:38.006Z,0.60
2023-04-12T22:36:06.053Z,0.70
2023-04-12T22:38:36.104Z,0.70
2023-04-12T22:41:03.541Z,0.73
2023-04-12T22:43:33.881Z,0.70
2023-04-12T22:46:04.261Z,0.60
2023-04-12T22:48:32.313Z,0.70
2023-04-12T22:51:00.376Z,0.57
2023-04-12T22:53:27.947Z,0.60
2023-04-12T22:55:56.852Z,0.60
2023-04-12T22:58:25.061Z,0.60
2023-04-12T23:00:52.527Z,0.60
2023-04-12T23:03:20.562Z,0.70
2023-04-12T23:05:48.029Z,0.60
2023-04-12T23:08:15.618Z,0.70
2023-04-12T23:10:43.133Z,0.50
2023-04-12T23:13:12.251Z,2.53
2023-04-12T23:15:40.747Z,0.60
2023-04-12T23:18:08.948Z,0.63
2023-04-12T23:20:36.369Z,1.03
2023-04-12T23:23:03.800Z,0.63
2023-04-12T23:25:39.151Z,0.63
2023-04-12T23:28:12.604Z,0.70
2023-04-12T23:30:43.054Z,0.60
2023-04-12T23:33:11.767Z,0.60
2023-04-12T23:35:39.764Z,0.70
2023-04-12T23:38:07.143Z,0.70
2023-04-12T23:40:35.059Z,1.77
2023-04-12T23:43:02.516Z,1.50
2023-04-12T23:45:29.892Z,2.37
2023-04-12T23:47:58.646Z,0.70
2023-04-12T23:50:26.128Z,0.70
2023-04-12T23:52:53.504Z,0.70
2023-04-12T23:55:20.945Z,0.53
2023-04-12T23:57:48.364Z,1.30
